Time;durP1;ratioP1;P1;durP2;ratioP2;P2;SDS_P1;SDS_P2;PMS_P1;PMS_P2;Temp;Humidity;BMP_temperature;BMP_pressure;BME280_temperature;BME280_humidity;BME280_pressure;Samples;Min_cycle;Max_cycle;Signal;HPM_P1;HPM_P2
2020/12/25 00:02:12;;;;;;;61.28;37.33;;;10.70;99.90;;;;;;5033826;28;20499;-72
2020/12/25 00:04:38;;;;;;;53.97;33.97;;;10.70;99.90;;;;;;5032709;28;20029;-70
2020/12/25 00:07:06;;;;;;;54.00;33.72;;;10.70;99.90;;;;;;5047219;28;20531;-73
2020/12/25 00:09:32;;;;;;;54.50;32.03;;;10.70;99.90;;;;;;5040733;28;20119;-72
2020/12/25 00:11:58;;;;;;;56.88;30.42;;;10.70;99.90;;;;;;5053002;28;20083;-73
2020/12/25 00:14:24;;;;;;;70.38;37.97;;;10.70;99.90;;;;;;5050952;28;20025;-73
2020/12/25 00:16:49;;;;;;;82.25;42.58;;;10.60;99.90;;;;;;5042642;28;20387;-71
2020/12/25 00:19:15;;;;;;;95.85;46.55;;;10.60;99.90;;;;;;5038730;28;20040;-70
2020/12/25 00:21:41;;;;;;;86.32;39.35;;;;;;;;;;5037047;28;20023;-69
2020/12/25 00:24:08;;;;;;;70.43;33.50;;;10.70;99.90;;;;;;5045101;28;20036;-75
2020/12/25 00:26:34;;;;;;;48.28;30.50;;;10.70;99.90;;;;;;5050560;28;20041;-72
2020/12/25 00:29:03;;;;;;;54.80;26.75;;;10.80;99.90;;;;;;5048167;28;20080;-71
2020/12/25 00:31:33;;;;;;;37.47;22.95;;;10.90;99.90;;;;;;5050754;28;20095;-69
2020/12/25 00:34:03;;;;;;;47.38;25.50;;;10.90;99.90;;;;;;5046584;28;20437;-70
2020/12/25 00:36:39;;;;;;;35.03;22.05;;;10.90;99.90;;;;;;5047935;28;20025;-70
2020/12/25 00:39:07;;;;;;;35.40;22.52;;;11.00;99.90;;;;;;5048603;28;20036;-71
2020/12/25 00:41:33;;;;;;;41.42;23.77;;;10.70;99.90;;;;;;5048822;28;20063;-72
2020/12/25 00:43:59;;;;;;;41.08;24.30;;;11.00;99.90;;;;;;5049557;28;20360;-70
2020/12/25 00:46:25;;;;;;;45.25;25.95;;;11.00;99.90;;;;;;5047285;28;20032;-71
2020/12/25 00:48:50;;;;;;;38.20;22.95;;;11.00;99.90;;;;;;5049951;28;20436;-73
2020/12/25 00:51:18;;;;;;;36.40;21.27;;;11.00;99.90;;;;;;5045564;28;20033;-73
2020/12/25 00:53:44;;;;;;;40.60;21.40;;;11.10;99.90;;;;;;5036805;28;20033;-70
2020/12/25 00:56:11;;;;;;;39.75;23.63;;;11.10;99.90;;;;;;5032855;28;20053;-71
2020/12/25 00:58:37;;;;;;;35.20;20.75;;;11.10;99.90;;;;;;5036111;28;20033;-71
2020/12/25 01:01:05;;;;;;;41.10;23.17;;;11.10;99.90;;;;;;5034113;28;20109;-71
2020/12/25 01:03:32;;;;;;;41.58;23.52;;;11.10;99.90;;;;;;5034374;28;20450;-72
2020/12/25 01:05:58;;;;;;;34.60;21.27;;;11.00;99.90;;;;;;5033741;28;20095;-70
2020/12/25 01:08:23;;;;;;;41.70;22.75;;;11.00;99.90;;;;;;5035784;28;20515;-72
2020/12/25 01:10:49;;;;;;;49.40;24.15;;;11.10;99.90;;;;;;5034400;28;20036;-71
2020/12/25 01:13:15;;;;;;;41.28;24.10;;;11.10;99.90;;;;;;5034246;28;20052;-70
2020/12/25 01:15:41;;;;;;;35.05;22.67;;;11.30;99.90;;;;;;5036520;28;20017;-70
2020/12/25 01:18:07;;;;;;;46.13;25.20;;;11.30;99.90;;;;;;5033667;28;20497;-71
2020/12/25 01:20:34;;;;;;;34.17;21.80;;;11.30;99.90;;;;;;5033693;28;20036;-71
2020/12/25 01:23:00;;;;;;;42.38;25.08;;;11.20;99.90;;;;;;5033569;28;20415;-71
2020/12/25 01:25:26;;;;;;;39.88;25.48;;;11.30;99.90;;;;;;5032051;28;20022;-71
2020/12/25 01:27:51;;;;;;;33.83;23.25;;;11.40;99.90;;;;;;5035490;28;20025;-73
2020/12/25 01:30:17;;;;;;;48.38;26.73;;;11.50;99.90;;;;;;5034968;28;20029;-70
2020/12/25 01:32:43;;;;;;;47.80;25.90;;;11.50;99.90;;;;;;5035524;28;20036;-71
2020/12/25 01:35:09;;;;;;;56.60;30.83;;;11.60;99.90;;;;;;5033642;28;20022;-70
2020/12/25 01:37:35;;;;;;;31.55;18.25;;;11.70;99.90;;;;;;5033569;28;20463;-69
2020/12/25 01:40:00;;;;;;;36.92;23.20;;;11.60;99.90;;;;;;5046817;28;20167;-72
2020/12/25 01:42:26;;;;;;;39.25;22.75;;;11.80;99.90;;;;;;5039917;28;20021;-72
2020/12/25 01:44:52;;;;;;;49.85;28.63;;;11.80;99.90;;;;;;5042675;28;20498;-72
2020/12/25 01:47:20;;;;;;;50.05;29.35;;;11.70;99.90;;;;;;5040115;28;20021;-72
2020/12/25 01:49:47;;;;;;;48.67;29.42;;;11.70;99.90;;;;;;5041086;28;20057;-71
2020/12/25 01:52:13;;;;;;;48.20;28.02;;;11.70;99.90;;;;;;5043421;28;20486;-72
2020/12/25 01:54:43;;;;;;;51.35;27.10;;;11.70;99.90;;;;;;5039125;28;20021;-72
2020/12/25 01:57:12;;;;;;;44.90;26.50;;;11.60;99.90;;;;;;5044921;28;20086;-73
2020/12/25 01:59:39;;;;;;;46.33;26.02;;;11.70;99.90;;;;;;5039344;28;20057;-71
2020/12/25 02:02:05;;;;;;;40.80;22.23;;;11.70;99.90;;;;;;5044017;28;20052;-71
2020/12/25 02:04:31;;;;;;;42.47;25.35;;;11.70;99.90;;;;;;5039740;28;20124;-73
2020/12/25 02:06:57;;;;;;;42.40;24.42;;;11.70;99.90;;;;;;5042586;28;20438;-71
2020/12/25 02:09:23;;;;;;;38.25;23.55;;;11.60;99.90;;;;;;5041350;28;20100;-73
2020/12/25 02:11:49;;;;;;;46.65;24.20;;;11.70;99.90;;;;;;5040589;28;20027;-72
2020/12/25 02:14:15;;;;;;;50.63;27.88;;;11.60;99.90;;;;;;5044730;28;20528;-72
2020/12/25 02:16:41;;;;;;;56.70;31.13;;;11.60;99.90;;;;;;5043030;28;20030;-71
2020/12/25 02:19:08;;;;;;;56.80;32.83;;;11.50;99.90;;;;;;5032280;28;20033;-71
2020/12/25 02:21:34;;;;;;;54.45;30.42;;;11.40;99.90;;;;;;5032418;28;20117;-73
2020/12/25 02:24:00;;;;;;;56.15;29.60;;;11.40;99.90;;;;;;5031926;28;20022;-71
2020/12/25 02:26:26;;;;;;;55.42;33.63;;;11.30;99.90;;;;;;5038695;28;20025;-71
2020/12/25 02:28:52;;;;;;;59.30;32.20;;;11.30;99.90;;;;;;5051524;28;20056;-70
2020/12/25 02:31:17;;;;;;;59.95;34.60;;;11.10;99.90;;;;;;5051873;28;20033;-73
2020/12/25 02:33:44;;;;;;;57.47;34.85;;;11.00;99.90;;;;;;5042639;28;20052;-71
2020/12/25 02:36:09;;;;;;;57.05;32.03;;;11.00;99.90;;;;;;5032229;28;20029;-72
2020/12/25 02:38:35;;;;;;;53.38;32.38;;;10.90;99.90;;;;;;5032164;28;20029;-72
2020/12/25 02:41:01;;;;;;;59.50;33.00;;;11.00;99.90;;;;;;5032111;28;20100;-73
2020/12/25 02:43:27;;;;;;;56.53;34.25;;;10.90;99.90;;;;;;5031774;28;20106;-73
2020/12/25 02:45:52;;;;;;;67.15;33.88;;;10.80;99.90;;;;;;5030908;28;20037;-71
2020/12/25 02:48:18;;;;;;;57.95;34.88;;;10.80;99.90;;;;;;5032273;28;20151;-72
2020/12/25 02:50:44;;;;;;;56.70;34.33;;;10.60;99.90;;;;;;5032071;28;20034;-71
2020/12/25 02:53:09;;;;;;;61.75;36.60;;;10.60;99.90;;;;;;5031758;28;20115;-71
2020/12/25 02:55:35;;;;;;;64.38;35.25;;;10.60;99.90;;;;;;5032455;28;20448;-71
2020/12/25 02:58:01;;;;;;;64.32;37.50;;;10.40;99.90;;;;;;5031010;28;20036;-71
2020/12/25 03:00:27;;;;;;;59.28;35.22;;;10.40;99.90;;;;;;5037647;28;20029;-71
2020/12/25 03:02:52;;;;;;;59.70;34.10;;;10.10;99.90;;;;;;5038799;28;20056;-70
2020/12/25 03:05:18;;;;;;;56.33;34.95;;;10.10;99.90;;;;;;5033477;28;20460;-70
2020/12/25 03:07:44;;;;;;;53.42;31.90;;;10.00;99.90;;;;;;5036892;28;20080;-68
2020/12/25 03:10:10;;;;;;;52.38;31.17;;;9.90;99.90;;;;;;5037318;28;20474;-73
2020/12/25 03:12:36;;;;;;;58.42;33.58;;;9.90;99.90;;;;;;5030860;28;20032;-71
2020/12/25 03:15:02;;;;;;;53.75;32.25;;;9.90;99.90;;;;;;5042874;28;20021;-71
2020/12/25 03:17:28;;;;;;;58.25;34.03;;;9.90;99.90;;;;;;5036065;28;20017;-69
2020/12/25 03:19:54;;;;;;;58.38;35.47;;;9.90;99.90;;;;;;5033296;28;20071;-68
2020/12/25 03:22:19;;;;;;;52.88;34.58;;;9.90;99.90;;;;;;5031168;28;20080;-68
2020/12/25 03:24:45;;;;;;;55.03;33.17;;;9.70;99.90;;;;;;5031822;28;20419;-69
2020/12/25 03:27:11;;;;;;;61.95;33.53;;;9.70;99.90;;;;;;5032411;28;20033;-70
2020/12/25 03:29:36;;;;;;;56.17;34.15;;;9.70;99.90;;;;;;5032363;28;20087;-70
2020/12/25 03:32:02;;;;;;;50.22;32.05;;;9.50;99.90;;;;;;5042601;28;20029;-70
2020/12/25 03:34:28;;;;;;;57.10;35.03;;;9.50;99.90;;;;;;5036572;28;20045;-70
2020/12/25 03:36:55;;;;;;;61.97;34.13;;;9.50;99.90;;;;;;5032526;28;20025;-70
2020/12/25 03:39:21;;;;;;;58.85;36.13;;;9.40;99.90;;;;;;5033346;28;20029;-69
2020/12/25 03:41:47;;;;;;;58.58;36.03;;;9.40;99.90;;;;;;5036453;28;20040;-70
2020/12/25 03:44:12;;;;;;;60.65;37.25;;;9.30;99.90;;;;;;5035775;28;20029;-71
2020/12/25 03:46:38;;;;;;;66.10;37.42;;;9.10;99.90;;;;;;5036346;28;20379;-71
2020/12/25 03:49:05;;;;;;;64.65;34.47;;;9.10;99.90;;;;;;5036846;28;20026;-70
2020/12/25 03:51:31;;;;;;;61.33;36.85;;;9.10;99.90;;;;;;5035878;28;20028;-73
2020/12/25 03:53:57;;;;;;;65.32;33.92;;;9.00;99.90;;;;;;5036249;28;20021;-71
2020/12/25 03:56:23;;;;;;;67.35;36.67;;;8.90;99.90;;;;;;5050088;28;20028;-72
2020/12/25 03:58:49;;;;;;;62.70;32.70;;;;;;;;;;5035886;28;20025;-70
2020/12/25 04:01:15;;;;;;;63.78;34.65;;;8.90;99.90;;;;;;5035699;28;20175;-70
2020/12/25 04:03:41;;;;;;;62.88;34.42;;;8.80;99.90;;;;;;5049454;28;20048;-71
2020/12/25 04:06:07;;;;;;;62.22;33.17;;;8.70;99.90;;;;;;5035973;28;20120;-70
2020/12/25 04:08:33;;;;;;;66.60;34.15;;;8.70;99.90;;;;;;5036249;28;20030;-70
2020/12/25 04:10:58;;;;;;;60.50;34.28;;;8.70;99.90;;;;;;5036514;28;20037;-70
2020/12/25 04:13:24;;;;;;;62.70;35.10;;;8.60;99.90;;;;;;5035918;28;20033;-71
2020/12/25 04:15:50;;;;;;;69.15;33.28;;;8.60;99.90;;;;;;5049727;28;20025;-70
2020/12/25 04:18:16;;;;;;;56.25;32.17;;;8.60;99.90;;;;;;5036238;28;20159;-70
2020/12/25 04:20:41;;;;;;;73.72;34.15;;;8.70;99.90;;;;;;5038255;28;20033;-71
2020/12/25 04:23:07;;;;;;;65.32;37.22;;;8.80;99.90;;;;;;5048003;28;20028;-73
2020/12/25 04:25:33;;;;;;;64.63;31.48;;;8.50;99.90;;;;;;5038242;28;20038;-72
2020/12/25 04:27:59;;;;;;;63.55;32.15;;;8.70;99.90;;;;;;5041219;28;20112;-70
2020/12/25 04:30:24;;;;;;;60.88;30.58;;;8.70;99.90;;;;;;5038554;28;20040;-73
2020/12/25 04:32:50;;;;;;;56.75;31.27;;;8.70;99.90;;;;;;5048150;28;20785;-73
2020/12/25 04:35:16;;;;;;;61.50;31.33;;;8.70;99.90;;;;;;5037700;28;20108;-73
2020/12/25 04:37:42;;;;;;;53.92;30.95;;;8.70;99.90;;;;;;5038886;28;20033;-72
2020/12/25 04:40:07;;;;;;;59.17;29.83;;;8.70;99.90;;;;;;5040357;28;20021;-69
2020/12/25 04:42:40;;;;;;;48.03;25.05;;;8.70;99.90;;;;;;5038143;28;20044;-72
2020/12/25 04:45:07;;;;;;;51.25;25.05;;;8.50;99.90;;;;;;5038999;28;20029;-71
2020/12/25 04:47:37;;;;;;;46.90;23.52;;;8.40;99.90;;;;;;5037903;28;20041;-76
2020/12/25 04:50:04;;;;;;;48.40;25.30;;;8.50;99.90;;;;;;5042245;28;20115;-71
2020/12/25 04:52:30;;;;;;;38.38;23.20;;;8.40;99.90;;;;;;5047203;28;20025;-71
2020/12/25 04:54:55;;;;;;;32.13;19.25;;;8.40;99.90;;;;;;5040090;28;20044;-72
2020/12/25 04:57:21;;;;;;;28.05;16.70;;;8.60;99.90;;;;;;5037972;28;20096;-71
2020/12/25 04:59:47;;;;;;;27.95;17.77;;;8.40;99.90;;;;;;5037075;28;20029;-71
2020/12/25 05:02:15;;;;;;;24.05;14.75;;;8.50;99.90;;;;;;5037945;28;20448;-74
2020/12/25 05:04:40;;;;;;;20.38;13.63;;;8.70;99.90;;;;;;5037788;28;20029;-71
2020/12/25 05:07:06;;;;;;;30.98;24.60;;;8.60;99.90;;;;;;5051518;28;20356;-71
2020/12/25 05:09:32;;;;;;;15.25;10.60;;;8.60;99.90;;;;;;5037196;28;20436;-70
2020/12/25 05:11:58;;;;;;;19.02;10.93;;;8.60;99.90;;;;;;5040983;28;20032;-71
2020/12/25 05:14:29;;;;;;;18.00;11.02;;;8.50;99.90;;;;;;5041221;28;20108;-70
2020/12/25 05:16:57;;;;;;;15.80;10.65;;;8.60;99.90;;;;;;5042926;28;20026;-72
2020/12/25 05:19:27;;;;;;;15.35;9.32;;;8.60;99.90;;;;;;5041754;28;20376;-72
2020/12/25 05:21:59;;;;;;;14.70;8.75;;;8.60;99.90;;;;;;5054513;28;20017;-72
2020/12/25 05:24:25;;;;;;;14.43;9.25;;;8.60;99.90;;;;;;5035381;28;20499;-74
2020/12/25 05:26:56;;;;;;;13.15;9.40;;;8.60;99.90;;;;;;5033549;28;20037;-71
2020/12/25 05:29:24;;;;;;;12.82;8.60;;;8.60;99.90;;;;;;5034461;28;20055;-72
2020/12/25 05:31:52;;;;;;;13.48;9.70;;;8.60;99.90;;;;;;5042819;28;20025;-71
2020/12/25 05:34:18;;;;;;;13.13;8.77;;;8.70;99.90;;;;;;5038743;28;20096;-72
2020/12/25 05:36:52;;;;;;;14.15;9.15;;;8.60;99.90;;;;;;5034003;28;20041;-76
2020/12/25 05:39:24;;;;;;;;;;;8.70;99.90;;;;;;5035240;28;20418;-71
2020/12/25 05:41:55;;;;;;;20.17;11.18;;;8.80;99.90;;;;;;5034178;28;20125;-72
2020/12/25 05:44:22;;;;;;;13.80;9.45;;;8.70;99.90;;;;;;5033685;28;20026;-69
2020/12/25 05:46:48;;;;;;;13.38;8.52;;;8.70;99.90;;;;;;5034472;28;20030;-70
2020/12/25 05:49:14;;;;;;;13.43;8.65;;;8.70;99.90;;;;;;5041079;28;20090;-72
2020/12/25 05:51:47;;;;;;;14.85;9.95;;;8.70;99.90;;;;;;5035998;28;20536;-74
2020/12/25 05:54:19;;;;;;;13.45;8.52;;;8.80;99.90;;;;;;5034100;28;20463;-71
2020/12/25 05:56:49;;;;;;;11.10;7.25;;;8.70;99.90;;;;;;5034202;28;20025;-74
2020/12/25 05:59:21;;;;;;;18.58;11.60;;;8.70;99.90;;;;;;5034407;28;20155;-72
2020/12/25 06:01:46;;;;;;;21.45;11.85;;;8.70;99.90;;;;;;5033467;28;20132;-71
2020/12/25 06:04:12;;;;;;;15.10;10.80;;;8.80;99.90;;;;;;5032474;28;20152;-71
2020/12/25 06:06:41;;;;;;;20.60;10.65;;;8.80;99.90;;;;;;5033509;28;20472;-73
2020/12/25 06:09:14;;;;;;;16.63;10.32;;;8.90;99.90;;;;;;5033858;28;20029;-72
2020/12/25 06:11:45;;;;;;;20.25;12.45;;;9.00;99.90;;;;;;5035720;28;20035;-75
2020/12/25 06:14:11;;;;;;;22.38;13.23;;;9.20;99.90;;;;;;5039545;28;20048;-73
2020/12/25 06:16:41;;;;;;;24.90;14.98;;;9.10;99.90;;;;;;5043971;28;20415;-73
2020/12/25 06:19:39;;;;;;;23.23;13.02;;;8.00;99.90;;;;;;5033216;28;20025;-70
2020/12/25 06:22:10;;;;;;;20.45;11.23;;;9.00;99.90;;;;;;5044250;28;20048;-70
2020/12/25 06:24:38;;;;;;;23.50;11.85;;;9.10;99.90;;;;;;5034229;28;20096;-72
2020/12/25 06:27:05;;;;;;;23.33;11.38;;;9.10;99.90;;;;;;5033385;28;20495;-74
2020/12/25 06:29:31;;;;;;;17.40;11.02;;;8.20;99.90;;;;;;5033604;28;20029;-72
2020/12/25 06:31:58;;;;;;;18.55;12.75;;;8.50;99.90;;;;;;5032468;28;20021;-71
2020/12/25 06:34:44;;;;;;;22.50;14.52;;;8.80;99.90;;;;;;5048780;28;20536;-71
2020/12/25 06:37:16;;;;;;;26.90;14.90;;;8.10;99.90;;;;;;5053929;28;20033;-74
2020/12/25 06:39:48;;;;;;;22.17;14.10;;;8.70;99.90;;;;;;5035753;28;20029;-70
2020/12/25 06:42:14;;;;;;;25.10;14.57;;;8.80;99.90;;;;;;5032002;28;20056;-69
2020/12/25 06:44:48;;;;;;;26.00;15.88;;;8.60;99.90;;;;;;5048360;28;20467;-69
2020/12/25 06:47:30;;;;;;;26.33;18.00;;;8.90;99.90;;;;;;5052609;28;20017;-69
2020/12/25 06:49:56;;;;;;;42.83;22.10;;;9.00;99.90;;;;;;5035373;28;20025;-72
2020/12/25 06:52:31;;;;;;;21.60;14.82;;;8.90;99.90;;;;;;5032028;28;20036;-69
2020/12/25 06:54:57;;;;;;;28.02;15.10;;;8.80;99.90;;;;;;5032891;28;20032;-71
2020/12/25 06:57:28;;;;;;;20.33;12.32;;;9.00;99.90;;;;;;5033309;28;20049;-71
2020/12/25 07:00:01;;;;;;;19.15;12.88;;;9.20;99.90;;;;;;5032927;28;20036;-72
2020/12/25 07:02:27;;;;;;;21.58;12.23;;;9.10;99.90;;;;;;5032492;28;20044;-73
2020/12/25 07:05:01;;;;;;;19.42;12.07;;;8.90;99.90;;;;;;5031408;28;20025;-73
2020/12/25 07:07:29;;;;;;;;;;;9.20;99.90;;;;;;5036914;28;20029;-71
2020/12/25 07:09:55;;;;;;;17.90;10.98;;;9.10;99.90;;;;;;5043901;28;19967;-73
2020/12/25 07:12:23;;;;;;;24.13;13.75;;;9.10;99.90;;;;;;5051699;28;20037;-76
2020/12/25 07:14:50;;;;;;;16.23;11.65;;;9.00;99.90;;;;;;5045290;28;20029;-73
2020/12/25 07:17:16;;;;;;;28.77;16.80;;;9.00;99.90;;;;;;5038453;28;20099;-71
2020/12/25 07:19:45;;;;;;;57.85;31.73;;;9.00;99.90;;;;;;5031851;28;20021;-72
2020/12/25 07:22:11;;;;;;;91.03;49.40;;;8.90;99.90;;;;;;5032253;28;20030;-70
2020/12/25 07:24:39;;;;;;;79.90;43.53;;;9.20;99.90;;;;;;5032112;28;20036;-70
2020/12/25 07:27:08;;;;;;;96.38;52.67;;;9.10;99.90;;;;;;5038828;28;20061;-72
2020/12/25 07:29:36;;;;;;;70.95;43.03;;;9.10;99.90;;;;;;5042591;28;20024;-71
2020/12/25 07:32:02;;;;;;;44.75;27.52;;;9.20;99.90;;;;;;5033905;28;20025;-73
2020/12/25 07:34:28;;;;;;;74.40;40.75;;;9.10;99.90;;;;;;5036267;28;20082;-74
2020/12/25 07:36:55;;;;;;;81.13;45.67;;;9.10;99.90;;;;;;5032683;28;20418;-70
2020/12/25 07:39:22;;;;;;;64.78;35.35;;;9.10;99.90;;;;;;5032185;28;20030;-73
2020/12/25 07:41:49;;;;;;;68.55;38.58;;;9.00;99.90;;;;;;5032589;28;20021;-71
2020/12/25 07:44:14;;;;;;;70.72;41.17;;;9.00;99.90;;;;;;5034145;28;20394;-71
2020/12/25 07:46:41;;;;;;;84.80;48.88;;;9.00;99.90;;;;;;5042610;28;20017;-72
2020/12/25 07:49:07;;;;;;;86.30;50.45;;;9.10;99.90;;;;;;5042986;28;20197;-72
2020/12/25 07:51:34;;;;;;;54.78;35.35;;;9.10;99.90;;;;;;5040901;28;20029;-72
2020/12/25 07:54:02;;;;;;;31.10;19.88;;;9.20;99.90;;;;;;5042582;28;20101;-71
2020/12/25 07:56:29;;;;;;;31.38;18.75;;;9.20;99.90;;;;;;5035134;28;20183;-71
2020/12/25 07:58:55;;;;;;;40.33;23.80;;;9.20;99.90;;;;;;5037254;28;20060;-73
2020/12/25 08:01:23;;;;;;;39.67;23.02;;;9.20;99.90;;;;;;5035282;28;20050;-72
2020/12/25 08:03:49;;;;;;;35.05;22.63;;;9.30;99.90;;;;;;5037261;28;20036;-71
2020/12/25 08:06:22;;;;;;;35.67;23.83;;;9.10;99.90;;;;;;5031285;28;20037;-73
2020/12/25 08:09:01;;;;;;;39.43;25.53;;;9.10;99.90;;;;;;5033576;28;20134;-73
2020/12/25 08:11:27;;;;;;;35.17;22.88;;;9.00;99.90;;;;;;5031673;28;20166;-76
2020/12/25 08:14:02;;;;;;;33.40;21.38;;;9.00;99.90;;;;;;5034239;28;20025;-72
2020/12/25 08:16:30;;;;;;;31.30;21.83;;;9.10;99.90;;;;;;5035189;28;20075;-73
2020/12/25 08:18:56;;;;;;;37.70;23.95;;;9.10;99.90;;;;;;5040045;28;20373;-71
2020/12/25 08:21:33;;;;;;;29.40;19.42;;;9.10;99.90;;;;;;5037971;28;20028;-72
2020/12/25 08:24:01;;;;;;;43.95;26.27;;;9.20;99.90;;;;;;5034443;28;20324;-70
2020/12/25 08:26:35;;;;;;;35.97;23.35;;;9.30;99.90;;;;;;5036074;28;20095;-73
2020/12/25 08:29:02;;;;;;;40.63;27.73;;;;;;;;;;5036561;28;20057;-72
2020/12/25 08:31:35;;;;;;;87.10;51.78;;;9.30;99.90;;;;;;5040598;28;20032;-72
2020/12/25 08:34:01;;;;;;;78.70;45.47;;;9.30;99.90;;;;;;5048949;28;20360;-71
2020/12/25 08:36:27;;;;;;;59.58;37.03;;;9.40;99.90;;;;;;5042422;28;20471;-71
2020/12/25 08:38:53;;;;;;;57.58;35.33;;;9.30;99.90;;;;;;5042625;28;20048;-73
2020/12/25 08:41:25;;;;;;;56.47;34.53;;;9.30;99.90;;;;;;5050890;28;20598;-72
2020/12/25 08:43:51;;;;;;;90.15;51.47;;;9.20;99.90;;;;;;5051001;28;20025;-72
2020/12/25 08:46:24;;;;;;;92.53;58.80;;;9.10;99.90;;;;;;5045718;28;20079;-73
2020/12/25 08:48:53;;;;;;;87.80;52.70;;;9.00;99.90;;;;;;5051263;28;20025;-72
2020/12/25 08:51:20;;;;;;;94.00;53.40;;;9.10;99.90;;;;;;5048259;28;20124;-72
2020/12/25 08:53:52;;;;;;;76.30;48.58;;;9.10;99.90;;;;;;5050440;28;20017;-73
2020/12/25 08:56:22;;;;;;;49.90;29.17;;;9.10;99.90;;;;;;5047491;28;20025;-73
2020/12/25 08:59:01;;;;;;;49.83;32.10;;;9.00;99.90;;;;;;5041581;28;20075;-74
2020/12/25 09:01:30;;;;;;;47.20;25.73;;;9.00;99.90;;;;;;5045020;28;20053;-72
2020/12/25 09:04:01;;;;;;;58.10;33.70;;;9.00;99.90;;;;;;5048218;28;20033;-73
2020/12/25 09:06:30;;;;;;;64.88;35.88;;;9.00;99.90;;;;;;5034787;28;20096;-73
2020/12/25 09:08:56;;;;;;;60.17;36.45;;;9.00;99.90;;;;;;5040402;28;20036;-73
2020/12/25 09:11:23;;;;;;;57.65;36.05;;;9.10;99.90;;;;;;5048980;28;20068;-74
2020/12/25 09:13:51;;;;;;;64.38;36.28;;;9.10;99.90;;;;;;5042406;28;20100;-73
2020/12/25 09:16:17;;;;;;;57.00;32.55;;;9.10;99.90;;;;;;5050103;28;20041;-74
2020/12/25 09:18:42;;;;;;;58.17;35.65;;;8.90;99.90;;;;;;5037642;28;20510;-74
2020/12/25 09:21:10;;;;;;;69.07;38.75;;;9.00;99.90;;;;;;5040387;28;20459;-73
2020/12/25 09:23:36;;;;;;;68.18;41.35;;;9.00;99.90;;;;;;5036167;28;20032;-73
2020/12/25 09:26:05;;;;;;;69.28;38.80;;;9.10;99.90;;;;;;5037186;28;20021;-73
2020/12/25 09:28:30;;;;;;;65.00;35.03;;;9.10;99.90;;;;;;5035118;28;20091;-74
2020/12/25 09:30:56;;;;;;;73.97;44.75;;;9.20;99.90;;;;;;5035767;28;20017;-74
2020/12/25 09:33:23;;;;;;;85.63;48.30;;;9.20;99.90;;;;;;5034096;28;20028;-74
2020/12/25 09:35:50;;;;;;;100.50;52.72;;;9.20;99.90;;;;;;5034014;28;20017;-73
2020/12/25 09:38:16;;;;;;;97.10;56.38;;;9.10;99.90;;;;;;5039111;28;20044;-74
2020/12/25 09:40:42;;;;;;;84.25;49.63;;;9.20;99.90;;;;;;5045427;28;20036;-73
2020/12/25 09:43:07;;;;;;;81.55;46.95;;;9.30;99.90;;;;;;5038311;28;20028;-72
2020/12/25 09:45:33;;;;;;;67.22;38.78;;;9.40;99.90;;;;;;5033698;28;20033;-75
2020/12/25 09:47:59;;;;;;;73.35;46.53;;;9.40;99.90;;;;;;5035284;28;20040;-77
2020/12/25 09:50:25;;;;;;;69.15;41.90;;;9.30;99.90;;;;;;5046283;28;20493;-76
2020/12/25 09:52:51;;;;;;;57.42;37.70;;;9.20;99.90;;;;;;5035990;28;20080;-75
2020/12/25 09:55:16;;;;;;;74.93;42.72;;;9.20;99.90;;;;;;5037548;28;20022;-72
2020/12/25 09:57:42;;;;;;;70.10;42.05;;;9.20;99.90;;;;;;5035571;28;20026;-74
2020/12/25 10:00:13;;;;;;;60.53;37.22;;;9.20;99.90;;;;;;5038618;28;20032;-77
2020/12/25 10:02:39;;;;;;;56.50;35.85;;;9.10;99.90;;;;;;5037072;28;20048;-74
2020/12/25 10:05:06;;;;;;;64.18;37.38;;;9.20;99.90;;;;;;5038420;28;20029;-75
2020/12/25 10:07:32;;;;;;;52.05;30.70;;;9.20;99.90;;;;;;5038613;28;20451;-74
2020/12/25 10:09:58;;;;;;;50.80;28.15;;;9.20;99.90;;;;;;5036093;28;20028;-73
2020/12/25 10:12:23;;;;;;;53.97;31.77;;;9.20;99.90;;;;;;5035945;28;20115;-74
2020/12/25 10:14:49;;;;;;;45.75;27.02;;;9.20;99.90;;;;;;5044387;28;20029;-75
2020/12/25 10:17:15;;;;;;;50.28;30.75;;;9.10;99.90;;;;;;5040845;28;20106;-73
2020/12/25 10:19:41;;;;;;;59.70;30.00;;;9.10;99.90;;;;;;5044197;28;20087;-73
2020/12/25 10:22:07;;;;;;;50.58;29.27;;;9.10;99.90;;;;;;5050920;28;20040;-73
2020/12/25 10:24:33;;;;;;;54.63;30.67;;;9.20;99.90;;;;;;5045396;28;20017;-74
2020/12/25 10:26:58;;;;;;;52.65;30.60;;;9.10;99.90;;;;;;5046066;28;20031;-73
2020/12/25 10:29:24;;;;;;;61.63;36.08;;;9.10;99.90;;;;;;5043796;28;20526;-73
2020/12/25 10:31:50;;;;;;;51.38;32.50;;;9.00;99.90;;;;;;5046490;28;20060;-73
2020/12/25 10:34:16;;;;;;;54.53;32.83;;;9.10;99.90;;;;;;5047857;28;20025;-74
2020/12/25 10:36:43;;;;;;;41.75;23.77;;;9.00;99.90;;;;;;5047708;28;20475;-73
2020/12/25 10:39:12;;;;;;;43.13;25.20;;;9.10;99.90;;;;;;5043173;28;20108;-75
2020/12/25 10:41:38;;;;;;;39.08;23.52;;;9.00;99.90;;;;;;5047000;28;20417;-72
2020/12/25 10:44:04;;;;;;;50.40;29.08;;;8.90;99.90;;;;;;5044558;28;20033;-73
2020/12/25 10:46:30;;;;;;;47.20;26.58;;;8.90;99.90;;;;;;5042814;28;20070;-73
2020/12/25 10:48:56;;;;;;;44.80;26.85;;;8.80;99.90;;;;;;5046636;28;20028;-74
2020/12/25 10:51:22;;;;;;;40.38;24.23;;;8.80;99.90;;;;;;5042157;28;20380;-74
2020/12/25 10:53:48;;;;;;;44.25;26.63;;;8.90;99.90;;;;;;5047745;28;20378;-73
2020/12/25 10:56:27;;;;;;;47.25;25.45;;;8.90;99.90;;;;;;5042962;28;20025;-73
2020/12/25 10:58:54;;;;;;;48.95;28.00;;;8.80;99.90;;;;;;5039686;28;20021;-73
2020/12/25 11:01:24;;;;;;;45.20;26.95;;;8.90;99.90;;;;;;5042255;28;20044;-74
2020/12/25 11:03:50;;;;;;;43.72;25.17;;;8.90;99.90;;;;;;5046810;28;20487;-74
2020/12/25 11:06:16;;;;;;;28.95;19.25;;;8.80;99.90;;;;;;5040899;28;20396;-73
2020/12/25 11:08:42;;;;;;;28.27;18.20;;;8.80;99.90;;;;;;5034057;28;20112;-72
2020/12/25 11:11:08;;;;;;;35.97;22.77;;;8.80;99.90;;;;;;5034348;28;20103;-72
2020/12/25 11:13:34;;;;;;;33.80;20.25;;;8.70;99.90;;;;;;5046730;28;20041;-74
2020/12/25 11:16:00;;;;;;;36.28;23.92;;;8.70;99.90;;;;;;5047640;28;20087;-73
2020/12/25 11:18:26;;;;;;;50.45;29.45;;;8.70;99.90;;;;;;5031760;28;20038;-75
2020/12/25 11:20:52;;;;;;;48.00;26.77;;;8.70;99.90;;;;;;5032625;28;20026;-73
2020/12/25 11:23:17;;;;;;;44.30;27.40;;;8.70;99.90;;;;;;5032505;28;20038;-73
2020/12/25 11:25:43;;;;;;;41.22;23.60;;;8.60;99.90;;;;;;5032110;28;20022;-73
2020/12/25 11:28:09;;;;;;;47.60;29.08;;;8.60;99.90;;;;;;5032432;28;20383;-73
2020/12/25 11:30:34;;;;;;;44.90;27.75;;;8.70;99.90;;;;;;5032877;28;20037;-73
2020/12/25 11:33:00;;;;;;;60.55;34.72;;;8.70;99.90;;;;;;5032761;28;20459;-73
2020/12/25 11:35:26;;;;;;;73.40;64.93;;;8.70;99.90;;;;;;5032442;28;20091;-73
2020/12/25 11:37:51;;;;;;;50.78;34.00;;;8.70;99.90;;;;;;5034320;28;20053;-73
2020/12/25 11:40:17;;;;;;;56.25;28.92;;;8.70;99.90;;;;;;5046554;28;20041;-73
2020/12/25 11:42:43;;;;;;;47.13;26.67;;;8.60;99.90;;;;;;5042431;28;20022;-73
2020/12/25 11:45:09;;;;;;;37.17;22.25;;;8.50;99.90;;;;;;5045268;28;20029;-72
2020/12/25 11:47:34;;;;;;;41.92;26.23;;;8.60;99.90;;;;;;5032603;28;20032;-72
2020/12/25 11:50:00;;;;;;;37.42;22.67;;;8.60;99.90;;;;;;5037754;28;20025;-73
2020/12/25 11:52:31;;;;;;;46.53;24.80;;;8.70;99.90;;;;;;5037447;28;20029;-74
2020/12/25 11:54:57;;;;;;;51.20;29.38;;;8.70;99.90;;;;;;5031479;28;20033;-73
2020/12/25 11:57:22;;;;;;;44.00;25.35;;;8.70;99.90;;;;;;5033462;28;20030;-74
2020/12/25 11:59:48;;;;;;;44.55;25.85;;;8.80;99.90;;;;;;5036509;28;20072;-74
2020/12/25 12:02:14;;;;;;;35.05;23.77;;;8.70;99.90;;;;;;5033291;28;20116;-74
2020/12/25 12:04:39;;;;;;;32.30;21.35;;;8.80;99.90;;;;;;5037368;28;20143;-73
2020/12/25 12:07:05;;;;;;;33.22;20.48;;;8.80;99.90;;;;;;5038721;28;20538;-74
2020/12/25 12:09:31;;;;;;;38.13;23.38;;;8.80;99.90;;;;;;5036252;28;20028;-73
2020/12/25 12:11:57;;;;;;;36.35;22.27;;;8.80;99.90;;;;;;5038753;28;20122;-74
2020/12/25 12:14:22;;;;;;;30.10;18.75;;;8.80;99.90;;;;;;5042162;28;20463;-77
2020/12/25 12:16:52;;;;;;;39.40;24.50;;;8.70;99.90;;;;;;5043384;28;20468;-73
2020/12/25 12:19:17;;;;;;;34.70;22.77;;;8.70;99.90;;;;;;5052605;28;20025;-74
2020/12/25 12:21:43;;;;;;;33.45;21.13;;;8.70;99.90;;;;;;5057182;28;20761;-75
2020/12/25 12:24:09;;;;;;;36.97;21.17;;;8.70;99.90;;;;;;5048418;28;20391;-75
2020/12/25 12:26:34;;;;;;;50.95;26.25;;;8.80;99.90;;;;;;5053884;28;20021;-76
2020/12/25 12:29:00;;;;;;;42.38;24.80;;;8.90;99.90;;;;;;5051942;28;20029;-75
2020/12/25 12:31:26;;;;;;;39.80;25.08;;;8.90;99.90;;;;;;5052705;28;20078;-76
2020/12/25 12:33:52;;;;;;;46.25;23.50;;;8.90;99.90;;;;;;5053406;28;20025;-76
2020/12/25 12:36:17;;;;;;;37.63;25.92;;;8.90;99.90;;;;;;5024878;28;20112;-77